Dillon, Colorado
Current Conditions -  °F | °C
As of 1:35 PM on Monday 22 Dec 2014 (Local Time) from KCCU Reporting Station
Overcast Overcast  
Wind Chill: -21°   Ceiling: 300
Heat Index: -10°   Visibility: NA
Dew Point: -13°   Wind: 28mph
Humidity: 79%   Direction: 290°WNW
Pressure: 29.62"   Gusts: 36mph
Location:  39.63°N, 106.04°W
Report Text: KCCU 222035Z AUTO 29024G31KT OVC003 M10/M13 A2962 RMK AO2 PWINO
Loading
Personal Weather Stations






























Interactive Weather Map New forecast layout! Learn more

10-Day Weather Forecast

Advertisements
Track Severe Weather on mobile